Time;durP1;ratioP1;P1;durP2;ratioP2;P2;SDS_P1;SDS_P2;PMS_P1;PMS_P2;Temp;Humidity;BMP_temperature;BMP_pressure;BME280_temperature;BME280_humidity;BME280_pressure;Samples;Min_cycle;Max_cycle;Signal;HPM_P1;HPM_P2
2023/08/12 00:01:25;;;;;;;7.20;4.13;;;20.60;99.90;;;;;;5075235;28;20208;-61
2023/08/12 00:03:54;;;;;;;10.00;3.95;;;20.60;99.90;;;;;;5074488;28;20248;-61
2023/08/12 00:06:22;;;;;;;7.78;4.15;;;20.60;99.90;;;;;;5061748;28;20726;-61
2023/08/12 00:08:50;;;;;;;5.20;4.70;;;20.60;99.90;;;;;;5074679;28;20204;-61
2023/08/12 00:11:18;;;;;;;7.45;3.78;;;20.60;99.90;;;;;;5074560;28;20200;-61
2023/08/12 00:13:46;;;;;;;5.45;4.60;;;20.60;99.90;;;;;;5074122;28;20224;-61
2023/08/12 00:16:14;;;;;;;10.85;4.35;;;20.60;99.90;;;;;;5073814;28;20303;-60
2023/08/12 00:18:42;;;;;;;9.68;4.63;;;20.70;99.90;;;;;;5074103;28;20239;-61
2023/08/12 00:21:12;;;;;;;6.60;3.80;;;20.60;99.90;;;;;;5074000;28;20197;-61
2023/08/12 00:23:40;;;;;;;4.90;3.60;;;20.60;99.90;;;;;;5074116;28;20267;-61
2023/08/12 00:26:08;;;;;;;7.40;3.85;;;20.60;99.90;;;;;;5073712;28;20251;-60
2023/08/12 00:28:36;;;;;;;3.47;3.25;;;20.50;99.90;;;;;;5073727;28;20228;-60
2023/08/12 00:31:04;;;;;;;7.18;3.60;;;20.50;99.90;;;;;;5072897;28;20228;-61
2023/08/12 00:33:32;;;;;;;6.43;3.65;;;20.50;99.90;;;;;;5073576;28;20260;-59
2023/08/12 00:36:00;;;;;;;4.80;3.78;;;20.50;99.90;;;;;;5073436;28;20266;-61
2023/08/12 00:38:30;;;;;;;4.63;3.35;;;20.50;99.90;;;;;;5074023;28;20196;-60
2023/08/12 00:40:58;;;;;;;5.75;3.40;;;20.50;99.90;;;;;;5073815;28;20200;-61
2023/08/12 00:43:25;;;;;;;3.70;2.97;;;20.50;99.90;;;;;;5073735;28;20229;-61
2023/08/12 00:45:53;;;;;;;4.60;3.92;;;20.50;99.90;;;;;;5073139;28;20197;-60
2023/08/12 00:48:23;;;;;;;4.70;3.50;;;20.50;99.90;;;;;;5073567;28;20197;-61
2023/08/12 00:50:51;;;;;;;3.83;3.53;;;20.50;99.90;;;;;;5073499;28;20287;-61
2023/08/12 00:53:18;;;;;;;6.60;3.67;;;20.50;99.90;;;;;;5073616;28;20743;-61
2023/08/12 00:55:48;;;;;;;4.78;3.70;;;20.50;99.90;;;;;;5073095;28;20292;-61
2023/08/12 00:58:15;;;;;;;4.10;3.38;;;20.50;99.90;;;;;;5073571;28;20250;-60
2023/08/12 01:00:43;;;;;;;8.02;3.90;;;20.50;99.90;;;;;;5073034;28;20248;-60
2023/08/12 01:03:11;;;;;;;9.15;4.10;;;20.60;99.90;;;;;;5073618;28;20220;-61
2023/08/12 01:05:40;;;;;;;11.95;3.92;;;20.60;99.90;;;;;;5062401;28;20761;-59
2023/08/12 01:08:08;;;;;;;5.28;3.80;;;20.60;99.90;;;;;;5070930;28;20227;-61
2023/08/12 01:10:36;;;;;;;5.00;3.63;;;20.60;99.90;;;;;;5072843;28;20239;-60
2023/08/12 01:13:12;;;;;;;8.55;3.80;;;20.60;99.90;;;;;;5073182;28;20216;-61
2023/08/12 01:15:40;;;;;;;8.30;4.30;;;20.70;99.90;;;;;;5072982;28;20287;-61
2023/08/12 01:18:08;;;;;;;10.10;3.90;;;20.70;99.90;;;;;;5073189;28;20228;-60
2023/08/12 01:20:35;;;;;;;5.78;3.80;;;20.70;99.90;;;;;;5072897;28;20239;-61
2023/08/12 01:23:13;;;;;;;6.82;4.20;;;20.70;99.90;;;;;;5072910;28;20673;-61
2023/08/12 01:25:41;;;;;;;9.35;3.90;;;20.70;99.90;;;;;;5071823;28;20201;-60
2023/08/12 01:28:09;;;;;;;7.50;4.20;;;20.70;99.90;;;;;;5073091;28;20236;-60
2023/08/12 01:30:40;;;;;;;17.20;4.07;;;20.70;99.90;;;;;;5072712;28;20236;-61
2023/08/12 01:33:11;;;;;;;7.80;4.35;;;20.60;99.90;;;;;;5072770;28;20624;-61
2023/08/12 01:35:41;;;;;;;5.65;4.25;;;20.60;99.90;;;;;;5072371;28;20284;-61
2023/08/12 01:38:09;;;;;;;11.60;4.10;;;20.60;99.90;;;;;;5072541;28;20225;-60
2023/08/12 01:40:39;;;;;;;8.63;4.65;;;20.60;99.90;;;;;;5071742;28;20254;-60
2023/08/12 01:43:08;;;;;;;7.10;3.88;;;20.60;99.90;;;;;;5072375;28;20742;-60
2023/08/12 01:45:36;;;;;;;7.97;4.25;;;20.50;99.90;;;;;;5071934;28;20205;-60
2023/08/12 01:48:04;;;;;;;7.65;4.55;;;20.50;99.90;;;;;;5072587;28;20205;-60
2023/08/12 01:50:32;;;;;;;7.13;4.50;;;20.50;99.90;;;;;;5072369;28;20201;-61
2023/08/12 01:53:00;;;;;;;7.43;4.35;;;20.50;99.90;;;;;;5072373;28;20278;-60
2023/08/12 01:55:28;;;;;;;8.77;4.30;;;20.50;99.90;;;;;;5072089;28;20299;-61
2023/08/12 01:57:57;;;;;;;7.53;4.70;;;20.50;99.90;;;;;;5072361;28;20228;-61
2023/08/12 02:00:25;;;;;;;12.45;4.53;;;20.50;99.90;;;;;;5039682;28;20242;-60
2023/08/12 02:02:53;;;;;;;9.85;4.70;;;20.50;99.90;;;;;;5072155;28;20715;-60
2023/08/12 02:05:21;;;;;;;15.30;4.72;;;20.50;99.90;;;;;;5063750;28;20211;-60
2023/08/12 02:07:49;;;;;;;10.35;4.47;;;20.50;99.90;;;;;;5067359;28;20741;-60
2023/08/12 02:10:17;;;;;;;6.57;4.30;;;20.50;99.90;;;;;;5071654;28;20204;-60
2023/08/12 02:12:45;;;;;;;9.52;5.13;;;20.50;99.90;;;;;;5071922;28;20708;-61
2023/08/12 02:15:15;;;;;;;9.65;5.10;;;20.40;99.90;;;;;;5070845;28;20292;-61
2023/08/12 02:17:42;;;;;;;4.93;4.40;;;20.40;99.90;;;;;;5071501;28;20289;-61
2023/08/12 02:20:11;;;;;;;8.35;4.10;;;20.40;99.90;;;;;;5072039;28;20197;-61
2023/08/12 02:22:39;;;;;;;7.40;4.80;;;20.40;99.90;;;;;;5071758;28;20585;-61
2023/08/12 02:25:08;;;;;;;5.68;5.00;;;20.40;99.90;;;;;;5071156;28;20209;-61
2023/08/12 02:27:35;;;;;;;10.75;5.43;;;20.40;99.90;;;;;;5071838;28;20235;-61
2023/08/12 02:30:04;;;;;;;11.48;5.22;;;20.40;99.90;;;;;;5071610;28;20635;-61
2023/08/12 02:32:34;;;;;;;16.45;6.10;;;20.40;99.90;;;;;;5071444;28;20216;-60
2023/08/12 02:35:02;;;;;;;13.13;6.50;;;20.40;99.90;;;;;;5071367;28;20727;-61
2023/08/12 02:37:30;;;;;;;14.13;6.25;;;20.40;99.90;;;;;;5071782;28;20265;-61
2023/08/12 02:39:58;;;;;;;17.35;5.93;;;20.40;99.90;;;;;;5071263;28;20213;-61
2023/08/12 02:42:26;;;;;;;10.77;7.25;;;20.30;99.90;;;;;;5071425;28;20278;-61
2023/08/12 02:44:54;;;;;;;11.50;7.35;;;20.30;99.90;;;;;;5070717;28;20341;-61
2023/08/12 02:47:22;;;;;;;13.25;7.80;;;20.30;99.90;;;;;;5071610;28;20236;-61
2023/08/12 02:49:51;;;;;;;11.70;7.80;;;20.30;99.90;;;;;;5071192;28;20239;-61
2023/08/12 02:52:19;;;;;;;14.07;7.82;;;20.40;99.90;;;;;;5071508;28;20300;-60
2023/08/12 02:54:47;;;;;;;17.17;8.38;;;20.40;99.90;;;;;;5070988;28;20629;-60
2023/08/12 02:57:15;;;;;;;17.20;6.93;;;20.40;99.90;;;;;;5071289;28;20256;-60
2023/08/12 02:59:43;;;;;;;13.25;6.70;;;20.40;99.90;;;;;;5071082;28;20229;-61
2023/08/12 03:02:11;;;;;;;15.18;7.22;;;20.40;99.90;;;;;;5071494;28;20669;-61
2023/08/12 03:04:38;;;;;;;14.02;6.88;;;20.40;99.90;;;;;;5069235;28;20197;-61
2023/08/12 03:07:08;;;;;;;12.13;7.93;;;20.40;99.90;;;;;;5060922;28;20228;-61
2023/08/12 03:09:36;;;;;;;14.05;8.65;;;20.30;99.90;;;;;;5071142;28;20197;-61
2023/08/12 03:12:04;;;;;;;12.73;8.02;;;20.30;99.90;;;;;;5071032;28;20228;-61
2023/08/12 03:14:32;;;;;;;12.98;7.72;;;20.30;99.90;;;;;;5071327;28;20553;-61
2023/08/12 03:17:00;;;;;;;8.80;7.65;;;20.40;99.90;;;;;;5071049;28;20667;-61
2023/08/12 03:19:28;;;;;;;11.75;7.00;;;20.30;99.90;;;;;;5071032;28;20258;-61
2023/08/12 03:21:56;;;;;;;9.00;7.63;;;20.40;99.90;;;;;;5071210;28;20364;-61
2023/08/12 03:24:25;;;;;;;10.57;7.22;;;20.40;99.90;;;;;;5038458;28;20247;-61
2023/08/12 03:26:53;;;;;;;9.48;7.60;;;20.40;99.90;;;;;;5071123;28;20232;-61
2023/08/12 03:29:21;;;;;;;13.23;8.10;;;20.40;99.90;;;;;;5066614;28;20221;-61
2023/08/12 03:31:50;;;;;;;8.85;7.97;;;20.40;99.90;;;;;;5066691;28;20201;-61
2023/08/12 03:34:18;;;;;;;10.13;9.15;;;20.40;99.90;;;;;;5070814;28;20205;-61
2023/08/12 03:36:48;;;;;;;11.35;9.35;;;20.40;99.90;;;;;;5070594;28;20884;-60
2023/08/12 03:39:16;;;;;;;10.38;9.02;;;20.40;99.90;;;;;;5070641;28;20687;-59
2023/08/12 03:41:45;;;;;;;10.82;9.13;;;20.40;99.90;;;;;;5071054;28;20259;-59
2023/08/12 03:44:13;;;;;;;15.20;9.60;;;20.40;99.90;;;;;;5071527;28;20266;-61
2023/08/12 03:46:41;;;;;;;15.60;12.20;;;20.40;99.90;;;;;;5070658;28;20730;-61
2023/08/12 03:49:09;;;;;;;16.60;11.90;;;20.40;99.90;;;;;;5070932;28;20197;-61
2023/08/12 03:51:37;;;;;;;13.90;12.55;;;20.40;99.90;;;;;;5070798;28;20205;-61
2023/08/12 03:54:05;;;;;;;13.88;11.52;;;20.50;99.90;;;;;;5071144;28;20232;-60
2023/08/12 03:56:33;;;;;;;17.20;13.15;;;20.50;99.90;;;;;;5070508;28;20240;-61
2023/08/12 03:59:02;;;;;;;13.95;11.35;;;20.50;99.90;;;;;;5070740;28;20221;-61
2023/08/12 04:01:30;;;;;;;14.68;12.88;;;20.50;99.90;;;;;;5070710;28;20727;-61
2023/08/12 04:03:58;;;;;;;15.35;12.07;;;20.50;99.90;;;;;;5071182;28;20293;-61
2023/08/12 04:06:26;;;;;;;15.07;12.38;;;20.50;99.90;;;;;;5061579;28;20207;-61
2023/08/12 04:08:54;;;;;;;17.60;13.60;;;20.50;99.90;;;;;;5074531;28;20288;-61
2023/08/12 04:11:22;;;;;;;14.55;11.55;;;20.50;99.90;;;;;;5074268;28;20250;-61
2023/08/12 04:13:49;;;;;;;24.02;13.45;;;20.50;99.90;;;;;;5074103;28;20307;-61
2023/08/12 04:16:19;;;;;;;22.63;13.23;;;20.50;99.90;;;;;;5071533;28;20209;-60
2023/08/12 04:18:48;;;;;;;17.40;12.00;;;20.50;99.90;;;;;;5073934;28;20510;-61
2023/08/12 04:21:16;;;;;;;16.63;11.05;;;20.50;99.90;;;;;;5074097;28;20280;-60
2023/08/12 04:23:44;;;;;;;18.05;11.60;;;20.50;99.90;;;;;;5074193;28;20767;-60
2023/08/12 04:26:12;;;;;;;15.07;11.40;;;20.50;99.90;;;;;;5073717;28;20232;-60
2023/08/12 04:28:40;;;;;;;12.93;11.35;;;20.40;99.90;;;;;;5074174;28;20192;-60
2023/08/12 04:31:08;;;;;;;22.00;12.82;;;20.40;99.90;;;;;;5073467;28;20719;-60
2023/08/12 04:33:37;;;;;;;15.82;12.35;;;20.30;99.90;;;;;;5074302;28;20300;-60
2023/08/12 04:36:06;;;;;;;15.50;13.40;;;20.30;99.90;;;;;;5073645;28;20236;-59
2023/08/12 04:38:35;;;;;;;18.70;13.27;;;20.30;99.90;;;;;;5073674;28;20680;-60
2023/08/12 04:41:03;;;;;;;17.77;14.32;;;20.20;99.90;;;;;;5073967;28;20232;-61
2023/08/12 04:43:31;;;;;;;16.85;13.15;;;20.20;99.90;;;;;;5073700;28;20264;-61
2023/08/12 04:45:59;;;;;;;19.92;12.90;;;20.20;99.90;;;;;;5073296;28;20620;-61
2023/08/12 04:48:27;;;;;;;16.42;13.70;;;20.20;99.90;;;;;;5073917;28;20196;-61
2023/08/12 04:51:00;;;;;;;20.35;14.43;;;20.20;99.90;;;;;;5073628;28;20283;-61
2023/08/12 04:53:28;;;;;;;18.65;12.82;;;20.20;99.90;;;;;;5073672;28;20217;-60
2023/08/12 04:55:56;;;;;;;17.73;13.13;;;20.20;99.90;;;;;;5073236;28;20251;-60
2023/08/12 04:58:24;;;;;;;14.73;13.23;;;20.20;99.90;;;;;;5040872;28;20755;-61
2023/08/12 05:00:52;;;;;;;19.90;13.90;;;20.20;99.90;;;;;;5073164;28;20736;-61
2023/08/12 05:03:20;;;;;;;15.07;13.48;;;20.20;99.90;;;;;;5073278;28;20738;-61
2023/08/12 05:05:50;;;;;;;13.93;12.35;;;20.20;99.90;;;;;;5061682;28;20205;-61
2023/08/12 05:08:20;;;;;;;16.92;13.18;;;20.20;99.90;;;;;;5072802;28;20197;-61
2023/08/12 05:10:48;;;;;;;20.33;14.63;;;20.20;99.90;;;;;;5073085;28;20281;-61
2023/08/12 05:13:16;;;;;;;16.25;13.20;;;20.20;99.90;;;;;;5073185;28;20263;-61
2023/08/12 05:15:46;;;;;;;24.10;14.88;;;20.20;99.90;;;;;;5071916;28;20201;-61
2023/08/12 05:18:14;;;;;;;14.45;12.98;;;20.20;99.90;;;;;;5072993;28;20287;-61
2023/08/12 05:20:42;;;;;;;16.10;13.40;;;20.20;99.90;;;;;;5060663;28;20271;-60
2023/08/12 05:23:13;;;;;;;16.83;13.65;;;20.30;99.90;;;;;;5056449;28;20249;-60
2023/08/12 05:25:43;;;;;;;16.02;14.13;;;20.20;99.90;;;;;;5061272;28;20197;-60
2023/08/12 05:28:10;;;;;;;17.90;13.23;;;20.30;99.90;;;;;;5067638;28;20236;-62
2023/08/12 05:30:38;;;;;;;18.73;12.95;;;20.30;99.90;;;;;;5052691;28;20280;-62
2023/08/12 05:33:06;;;;;;;17.70;13.32;;;20.30;99.90;;;;;;5049429;28;20756;-61
2023/08/12 05:35:34;;;;;;;17.10;12.95;;;20.30;99.90;;;;;;5049078;28;20622;-61
2023/08/12 05:38:02;;;;;;;23.98;13.38;;;20.30;99.90;;;;;;5049107;28;20808;-61
2023/08/12 05:40:30;;;;;;;16.00;13.73;;;20.30;99.90;;;;;;5049364;28;20233;-61
2023/08/12 05:42:59;;;;;;;15.23;13.73;;;20.30;99.90;;;;;;5047617;28;20268;-60
2023/08/12 05:45:27;;;;;;;17.73;13.80;;;20.30;99.90;;;;;;5052461;28;20715;-61
2023/08/12 05:47:55;;;;;;;18.55;14.10;;;20.30;99.90;;;;;;5047815;28;20232;-62
2023/08/12 05:50:23;;;;;;;15.73;14.13;;;20.30;99.90;;;;;;5061349;28;20209;-62
2023/08/12 05:52:51;;;;;;;16.58;13.70;;;20.30;99.90;;;;;;5042530;28;20221;-61
2023/08/12 05:55:18;;;;;;;15.60;13.30;;;20.30;99.90;;;;;;5044795;28;20200;-61
2023/08/12 05:57:46;;;;;;;17.38;12.93;;;20.30;99.90;;;;;;5046343;28;20198;-61
2023/08/12 06:00:16;;;;;;;21.67;13.63;;;20.30;99.90;;;;;;5048432;28;20324;-64
2023/08/12 06:02:44;;;;;;;20.85;13.20;;;20.30;99.90;;;;;;5044025;28;20217;-64
2023/08/12 06:05:12;;;;;;;16.73;13.68;;;20.40;99.90;;;;;;5046126;28;20602;-64
2023/08/12 06:07:39;;;;;;;22.42;14.75;;;20.40;99.90;;;;;;5045053;28;20689;-64
2023/08/12 06:10:08;;;;;;;19.85;14.40;;;20.50;99.90;;;;;;5046451;28;20297;-64
2023/08/12 06:12:36;;;;;;;17.13;14.75;;;20.50;99.90;;;;;;5044036;28;20221;-64
2023/08/12 06:15:04;;;;;;;17.52;15.02;;;20.60;99.90;;;;;;5042766;28;20732;-63
2023/08/12 06:17:33;;;;;;;23.73;14.02;;;20.60;99.90;;;;;;5042237;28;20234;-64
2023/08/12 06:20:01;;;;;;;15.27;13.23;;;20.70;99.90;;;;;;5041904;28;20214;-64
2023/08/12 06:22:29;;;;;;;17.55;12.35;;;20.70;99.90;;;;;;5042705;28;20253;-64
2023/08/12 06:24:57;;;;;;;22.05;14.68;;;20.80;99.90;;;;;;5042567;28;20263;-64
2023/08/12 06:27:25;;;;;;;18.88;14.88;;;20.80;99.90;;;;;;5043197;28;20821;-64
2023/08/12 06:29:53;;;;;;;20.40;12.45;;;20.90;99.90;;;;;;5041447;28;20280;-64
2023/08/12 06:32:21;;;;;;;15.60;13.18;;;20.90;99.90;;;;;;5047831;28;20399;-62
2023/08/12 06:34:50;;;;;;;17.60;12.77;;;21.00;99.90;;;;;;5071365;28;20200;-62
2023/08/12 06:37:18;;;;;;;10.90;9.45;;;21.00;99.90;;;;;;5071533;28;20204;-61
2023/08/12 06:39:46;;;;;;;19.73;12.70;;;21.10;99.90;;;;;;5071490;28;20656;-62
2023/08/12 06:42:14;;;;;;;16.15;12.55;;;21.20;99.90;;;;;;5071107;28;20315;-62
2023/08/12 06:44:42;;;;;;;14.52;12.25;;;21.20;99.90;;;;;;5053042;28;20293;-63
2023/08/12 06:47:10;;;;;;;18.50;11.77;;;21.30;99.90;;;;;;5046390;28;20621;-62
2023/08/12 06:49:37;;;;;;;12.35;11.00;;;21.40;99.90;;;;;;5065263;28;20732;-62
2023/08/12 06:52:07;;;;;;;13.57;11.35;;;21.50;99.90;;;;;;5069291;28;20873;-63
2023/08/12 06:54:35;;;;;;;13.10;11.77;;;21.60;99.90;;;;;;5051766;28;20233;-62
2023/08/12 06:57:02;;;;;;;11.95;9.05;;;21.70;99.90;;;;;;5055927;28;20288;-62
2023/08/12 06:59:30;;;;;;;10.90;9.68;;;21.80;99.90;;;;;;5056807;28;20225;-62
2023/08/12 07:01:58;;;;;;;17.35;9.50;;;21.90;99.90;;;;;;5053362;28;20229;-62
2023/08/12 07:04:26;;;;;;;12.55;9.52;;;22.00;99.90;;;;;;5053838;28;20288;-63
2023/08/12 07:06:54;;;;;;;11.40;8.70;;;22.00;99.90;;;;;;5058914;28;20205;-63
2023/08/12 07:09:23;;;;;;;10.88;8.45;;;21.90;99.90;;;;;;5056971;28;20204;-62
2023/08/12 07:11:51;;;;;;;10.70;8.18;;;22.00;99.90;;;;;;5054246;28;20370;-63
2023/08/12 07:14:19;;;;;;;12.90;8.70;;;22.00;99.90;;;;;;5053825;28;20200;-62
2023/08/12 07:16:47;;;;;;;15.80;8.57;;;22.10;99.90;;;;;;5052029;28;20233;-62
2023/08/12 07:19:15;;;;;;;9.35;8.43;;;22.20;99.90;;;;;;5055626;28;20215;-63
2023/08/12 07:21:44;;;;;;;9.13;8.23;;;22.30;99.90;;;;;;5057306;28;20296;-63
2023/08/12 07:24:11;;;;;;;9.80;8.07;;;22.30;99.90;;;;;;5062852;28;20651;-62
2023/08/12 07:26:41;;;;;;;11.57;8.20;;;22.40;99.90;;;;;;5053348;28;20205;-62
2023/08/12 07:29:08;;;;;;;8.75;7.88;;;22.50;99.90;;;;;;5052538;28;20630;-63
2023/08/12 07:31:36;;;;;;;10.43;7.20;;;22.60;99.90;;;;;;5054128;28;20288;-64
2023/08/12 07:34:05;;;;;;;11.90;8.70;;;22.60;99.90;;;;;;5051105;28;20645;-64
2023/08/12 07:36:33;;;;;;;9.93;8.30;;;22.70;99.90;;;;;;5063214;28;20197;-64
2023/08/12 07:39:01;;;;;;;8.10;7.30;;;22.70;99.90;;;;;;5051484;28;20813;-64
2023/08/12 07:41:29;;;;;;;13.82;7.50;;;22.80;99.90;;;;;;5057451;28;20808;-64
2023/08/12 07:43:58;;;;;;;9.40;8.52;;;22.80;99.90;;;;;;5060089;28;20295;-64
2023/08/12 07:46:28;;;;;;;10.88;8.73;;;22.90;99.90;;;;;;5062529;28;20287;-64
2023/08/12 07:48:56;;;;;;;11.20;8.60;;;23.00;99.90;;;;;;5053071;28;20205;-64
2023/08/12 07:51:23;;;;;;;12.10;8.93;;;23.00;99.90;;;;;;5054134;28;20232;-64
2023/08/12 07:53:51;;;;;;;9.93;8.45;;;23.00;99.90;;;;;;5070471;28;20308;-64
2023/08/12 07:56:19;;;;;;;9.95;8.55;;;23.00;99.90;;;;;;5072781;28;20688;-64
2023/08/12 07:58:47;;;;;;;11.05;8.68;;;23.00;99.90;;;;;;5073689;28;20232;-64
2023/08/12 08:01:16;;;;;;;13.07;8.85;;;23.10;99.90;;;;;;5074074;28;20221;-64
2023/08/12 08:03:44;;;;;;;9.43;8.50;;;23.10;99.90;;;;;;5074340;28;20278;-64
2023/08/12 08:06:12;;;;;;;11.43;7.97;;;23.20;99.90;;;;;;5061441;28;20232;-64
2023/08/12 08:08:40;;;;;;;14.45;8.07;;;23.20;99.90;;;;;;5074712;28;20228;-64
2023/08/12 08:11:08;;;;;;;9.25;8.27;;;23.20;99.90;;;;;;5074360;28;20232;-64
2023/08/12 08:13:36;;;;;;;13.68;9.00;;;23.20;99.90;;;;;;5074338;28;20260;-65
2023/08/12 08:16:04;;;;;;;10.95;9.20;;;23.30;99.90;;;;;;5073666;28;20650;-65
2023/08/12 08:18:33;;;;;;;10.43;9.30;;;23.30;99.90;;;;;;5074256;28;20209;-64
2023/08/12 08:21:01;;;;;;;10.57;9.63;;;23.40;99.90;;;;;;5074136;28;20221;-64
2023/08/12 08:23:32;;;;;;;13.13;10.02;;;23.50;99.90;;;;;;5074181;28;20260;-64
2023/08/12 08:26:00;;;;;;;12.60;10.40;;;23.50;99.90;;;;;;5073687;28;20669;-64
2023/08/12 08:28:28;;;;;;;14.48;10.88;;;23.50;99.90;;;;;;5074079;28;20283;-64
2023/08/12 08:30:56;;;;;;;16.15;11.18;;;23.50;99.90;;;;;;5073732;28;20862;-64
2023/08/12 08:33:24;;;;;;;13.45;10.25;;;23.60;99.90;;;;;;5073991;28;20614;-64
2023/08/12 08:35:54;;;;;;;13.18;9.95;;;23.70;99.90;;;;;;5073553;28;20200;-64
2023/08/12 08:38:22;;;;;;;10.43;9.43;;;23.90;99.90;;;;;;5073754;28;20228;-64
2023/08/12 08:40:50;;;;;;;9.73;8.73;;;24.00;99.90;;;;;;5073602;28;20305;-64
2023/08/12 08:43:20;;;;;;;11.55;9.15;;;24.20;99.90;;;;;;5073532;28;20255;-64
2023/08/12 08:45:48;;;;;;;10.38;7.22;;;24.30;99.90;;;;;;5073267;28;20621;-65
2023/08/12 08:48:16;;;;;;;7.78;6.97;;;24.30;99.90;;;;;;5073824;28;20251;-65
2023/08/12 08:50:45;;;;;;;7.93;7.10;;;24.20;99.90;;;;;;5073022;28;20220;-65
2023/08/12 08:53:15;;;;;;;6.78;6.18;;;24.20;99.90;;;;;;5074226;28;20235;-65
2023/08/12 08:55:43;;;;;;;7.95;7.22;;;24.20;99.90;;;;;;5073043;28;20228;-64
2023/08/12 08:58:11;;;;;;;6.30;5.75;;;24.30;99.90;;;;;;5073855;28;20285;-65
2023/08/12 09:00:47;;;;;;;7.43;6.50;;;24.40;99.90;;;;;;5073401;28;20224;-65
2023/08/12 09:03:15;;;;;;;6.38;5.80;;;24.50;99.90;;;;;;5073264;28;20266;-65
2023/08/12 09:05:43;;;;;;;6.13;5.57;;;24.60;99.90;;;;;;5062549;28;20642;-65
2023/08/12 09:08:12;;;;;;;5.95;4.78;;;24.60;99.90;;;;;;5071809;28;20213;-65
2023/08/12 09:10:41;;;;;;;5.90;5.30;;;24.70;99.90;;;;;;5073523;28;20604;-65
2023/08/12 09:13:09;;;;;;;6.47;5.30;;;24.70;99.90;;;;;;5073449;28;20273;-65
2023/08/12 09:15:38;;;;;;;5.53;4.97;;;24.80;99.90;;;;;;5072900;28;20204;-65
2023/08/12 09:18:06;;;;;;;7.65;6.07;;;24.80;99.90;;;;;;5073211;28;20232;-65
2023/08/12 09:20:34;;;;;;;6.28;5.60;;;24.90;99.90;;;;;;5072869;28;20220;-65
2023/08/12 09:23:02;;;;;;;7.25;5.05;;;25.10;99.90;;;;;;5072885;28;20333;-65
2023/08/12 09:25:30;;;;;;;6.13;5.55;;;25.40;99.90;;;;;;5072885;28;20220;-65
2023/08/12 09:28:00;;;;;;;6.43;5.60;;;25.60;99.90;;;;;;5073184;28;20205;-65
2023/08/12 09:30:29;;;;;;;6.88;6.18;;;25.70;99.90;;;;;;5072965;28;20211;-65
2023/08/12 09:33:02;;;;;;;6.32;5.03;;;25.60;99.90;;;;;;5072939;28;20248;-65
2023/08/12 09:35:34;;;;;;;6.40;5.28;;;25.60;99.90;;;;;;5072450;28;20212;-65
2023/08/12 09:38:04;;;;;;;6.88;5.07;;;25.80;99.90;;;;;;5073126;28;20284;-65
2023/08/12 09:40:32;;;;;;;6.93;5.28;;;25.80;99.90;;;;;;5072682;28;20197;-66
2023/08/12 09:43:02;;;;;;;6.13;5.32;;;26.00;99.90;;;;;;5073071;28;20293;-64
2023/08/12 09:45:31;;;;;;;5.50;5.10;;;26.20;99.90;;;;;;5072354;28;20741;-64
2023/08/12 09:47:59;;;;;;;4.97;4.53;;;26.40;99.90;;;;;;5072007;28;20293;-64
2023/08/12 09:50:27;;;;;;;5.40;4.90;;;26.50;99.90;;;;;;5072202;28;20585;-64
2023/08/12 09:52:55;;;;;;;6.13;5.05;;;26.40;99.90;;;;;;5072387;28;20223;-64
2023/08/12 09:55:24;;;;;;;6.65;4.95;;;26.30;99.90;;;;;;5071876;28;20622;-64
2023/08/12 09:57:53;;;;;;;5.60;4.22;;;26.10;99.90;;;;;;5072417;28;20204;-64
2023/08/12 10:00:23;;;;;;;4.72;4.38;;;26.00;99.90;;;;;;5072042;28;20197;-64
2023/08/12 10:02:52;;;;;;;4.50;4.05;;;25.80;99.90;;;;;;5071598;28;20216;-64
2023/08/12 10:05:22;;;;;;;5.72;4.40;;;25.60;99.90;;;;;;5064881;28;20225;-64
2023/08/12 10:07:50;;;;;;;4.85;4.45;;;25.40;99.90;;;;;;5067950;28;20558;-64
2023/08/12 10:10:18;;;;;;;4.70;4.38;;;25.20;99.90;;;;;;5072187;28;20300;-64
2023/08/12 10:12:46;;;;;;;4.68;4.28;;;25.00;99.90;;;;;;5071772;28;20217;-64
2023/08/12 10:15:14;;;;;;;6.68;4.63;;;24.80;99.90;;;;;;5071958;28;20239;-64
2023/08/12 10:17:43;;;;;;;5.63;4.90;;;24.60;99.90;;;;;;5071962;28;20622;-64
2023/08/12 10:20:14;;;;;;;7.45;5.53;;;24.50;99.90;;;;;;5072138;28;20239;-64
2023/08/12 10:22:41;;;;;;;5.32;4.80;;;24.30;99.90;;;;;;5071712;28;20307;-64
2023/08/12 10:25:10;;;;;;;6.72;5.32;;;24.00;99.90;;;;;;5071706;28;20232;-64
2023/08/12 10:27:38;;;;;;;5.65;5.15;;;23.90;99.90;;;;;;5071675;28;20250;-64
2023/08/12 10:30:07;;;;;;;7.63;4.75;;;23.70;99.90;;;;;;5071789;28;20239;-64
2023/08/12 10:32:35;;;;;;;7.63;5.55;;;23.50;99.90;;;;;;5071702;28;20221;-64
2023/08/12 10:35:05;;;;;;;5.97;4.78;;;23.40;99.90;;;;;;5071693;28;20741;-64
2023/08/12 10:37:34;;;;;;;5.60;5.05;;;23.30;99.90;;;;;;5071742;28;20208;-64
2023/08/12 10:40:07;;;;;;;8.98;5.43;;;23.20;99.90;;;;;;5071593;28;20254;-64
2023/08/12 10:42:41;;;;;;;6.75;5.68;;;23.10;99.90;;;;;;5071258;28;20711;-64
2023/08/12 10:45:10;;;;;;;7.80;5.88;;;23.00;99.90;;;;;;5071366;28;20232;-64
2023/08/12 10:47:41;;;;;;;6.78;5.47;;;22.90;99.90;;;;;;5071680;28;20232;-64
2023/08/12 10:50:19;;;;;;;7.70;5.93;;;22.90;99.90;;;;;;5071512;28;20197;-64
2023/08/12 10:52:47;;;;;;;7.55;5.57;;;22.90;99.90;;;;;;5071447;28;20294;-64
2023/08/12 10:55:21;;;;;;;7.47;5.90;;;22.90;99.90;;;;;;5071547;28;20208;-64
2023/08/12 10:57:50;;;;;;;9.32;5.97;;;22.90;99.90;;;;;;5071496;28;20211;-66
2023/08/12 11:00:22;;;;;;;7.13;6.22;;;22.90;99.90;;;;;;5071708;28;20199;-64
2023/08/12 11:02:51;;;;;;;6.95;6.20;;;22.90;99.90;;;;;;5071111;28;20229;-64
2023/08/12 11:05:20;;;;;;;7.22;6.43;;;22.80;99.90;;;;;;5064398;28;20205;-64
2023/08/12 11:07:49;;;;;;;10.75;6.85;;;22.80;99.90;;;;;;5066818;28;20289;-64
2023/08/12 11:10:18;;;;;;;9.07;6.13;;;22.80;99.90;;;;;;5071539;28;20212;-64
2023/08/12 11:12:53;;;;;;;12.15;6.53;;;22.80;99.90;;;;;;5071190;28;20213;-64
2023/08/12 11:15:30;;;;;;;7.88;6.80;;;22.80;99.90;;;;;;5074129;28;20732;-64
2023/08/12 11:17:58;;;;;;;9.98;6.72;;;22.80;99.90;;;;;;5075498;28;20227;-64
2023/08/12 11:20:28;;;;;;;8.23;6.57;;;22.90;99.90;;;;;;5075657;28;20200;-64
2023/08/12 11:22:58;;;;;;;7.07;6.38;;;22.90;99.90;;;;;;5075227;28;20248;-64
2023/08/12 11:25:26;;;;;;;8.48;5.72;;;23.00;99.90;;;;;;5075203;28;20265;-64
2023/08/12 11:27:54;;;;;;;6.80;5.68;;;23.00;99.90;;;;;;5075040;28;20253;-64
2023/08/12 11:30:22;;;;;;;5.45;4.82;;;23.10;99.90;;;;;;5075270;28;20660;-64
2023/08/12 11:32:50;;;;;;;7.57;5.20;;;23.10;99.90;;;;;;5074990;28;20626;-64
2023/08/12 11:35:19;;;;;;;12.75;4.88;;;23.10;99.90;;;;;;5075025;28;20235;-64
2023/08/12 11:37:49;;;;;;;4.78;4.28;;;23.10;99.90;;;;;;5075011;28;20254;-64
2023/08/12 11:40:17;;;;;;;5.82;3.70;;;23.10;99.90;;;;;;5074849;28;20644;-64
2023/08/12 11:42:46;;;;;;;3.95;3.63;;;23.10;99.90;;;;;;5074814;28;20221;-64
2023/08/12 11:45:17;;;;;;;7.38;3.92;;;23.00;99.90;;;;;;5074774;28;20578;-64
2023/08/12 11:47:47;;;;;;;5.55;3.70;;;23.00;99.90;;;;;;5074976;28;20205;-64
2023/08/12 11:50:15;;;;;;;5.90;3.10;;;23.00;99.90;;;;;;5074954;28;20291;-64
2023/08/12 11:52:42;;;;;;;4.90;3.58;;;23.00;99.90;;;;;;5074581;28;20266;-64
2023/08/12 11:55:12;;;;;;;3.53;3.22;;;23.00;99.90;;;;;;5074405;28;20646;-64
2023/08/12 11:57:41;;;;;;;5.20;3.58;;;23.00;99.90;;;;;;5074651;28;20235;-64
2023/08/12 12:00:13;;;;;;;6.07;3.35;;;23.00;99.90;;;;;;5074894;28;20266;-64
2023/08/12 12:02:51;;;;;;;4.50;3.63;;;23.10;99.90;;;;;;5074504;28;20609;-64
2023/08/12 12:05:21;;;;;;;3.78;2.90;;;23.10;99.90;;;;;;5067034;28;20201;-64
2023/08/12 12:07:52;;;;;;;6.78;2.70;;;23.10;99.90;;;;;;5070466;28;20270;-64
2023/08/12 12:10:22;;;;;;;4.55;2.88;;;23.10;99.90;;;;;;5074656;28;20197;-64
2023/08/12 12:12:50;;;;;;;4.72;3.03;;;23.10;99.90;;;;;;5074252;28;20217;-64
2023/08/12 12:15:18;;;;;;;6.18;3.35;;;23.00;99.90;;;;;;5074145;28;20239;-64
2023/08/12 12:17:46;;;;;;;6.10;3.00;;;23.00;99.90;;;;;;5074269;28;20205;-64
2023/08/12 12:20:15;;;;;;;3.10;2.70;;;23.10;99.90;;;;;;5074537;28;20645;-64
2023/08/12 12:22:43;;;;;;;2.90;2.75;;;23.10;99.90;;;;;;5074016;28;20301;-64
2023/08/12 12:25:12;;;;;;;5.07;2.65;;;23.10;99.90;;;;;;5073578;28;20208;-64
2023/08/12 12:27:42;;;;;;;4.00;2.55;;;23.40;99.90;;;;;;5074144;28;20210;-64
2023/08/12 12:30:12;;;;;;;3.63;2.25;;;23.70;99.90;;;;;;5074047;28;20291;-64
2023/08/12 12:32:40;;;;;;;2.28;1.80;;;24.30;99.90;;;;;;5073816;28;20251;-64
2023/08/12 12:35:08;;;;;;;3.90;1.95;;;25.20;99.90;;;;;;5073618;28;20660;-64
2023/08/12 12:37:36;;;;;;;2.55;1.73;;;25.90;99.90;;;;;;5073876;28;20201;-64
2023/08/12 12:40:05;;;;;;;1.80;1.52;;;26.40;99.90;;;;;;5073876;28;20205;-64
2023/08/12 12:42:33;;;;;;;2.42;1.80;;;26.50;99.90;;;;;;5073584;28;20224;-64
2023/08/12 12:45:03;;;;;;;1.50;1.35;;;26.70;99.90;;;;;;5073466;28;20228;-64